Time;durP1;ratioP1;P1;durP2;ratioP2;P2;SDS_P1;SDS_P2;PMS_P1;PMS_P2;Temp;Humidity;BMP_temperature;BMP_pressure;BME280_temperature;BME280_humidity;BME280_pressure;Samples;Min_cycle;Max_cycle;Signal;HPM_P1;HPM_P2
2021/08/16 00:00:07;;;;;;;14.13;6.83;;;18.70;99.90;;;;;;4407366;28;657668;-66
2021/08/16 00:02:55;;;;;;;10.53;6.77;;;18.80;99.90;;;;;;4401278;28;657282;-66
2021/08/16 00:05:42;;;;;;;17.67;6.70;;;18.90;99.90;;;;;;4411328;28;656605;-67
2021/08/16 00:08:30;;;;;;;11.43;7.30;;;18.90;99.90;;;;;;4427280;28;658306;-67
2021/08/16 00:11:18;;;;;;;11.27;7.70;;;19.00;99.90;;;;;;4421850;28;656515;-68
2021/08/16 00:14:05;;;;;;;15.00;7.63;;;19.00;99.90;;;;;;4426383;28;657068;-68
2021/08/16 00:16:54;;;;;;;13.13;6.93;;;19.10;99.90;;;;;;4402008;28;656698;-67
2021/08/16 00:19:42;;;;;;;14.37;7.70;;;19.10;99.90;;;;;;4426680;28;657071;-67
2021/08/16 00:22:29;;;;;;;14.13;7.43;;;19.20;99.90;;;;;;4403905;28;657930;-66
2021/08/16 00:25:17;;;;;;;16.97;7.33;;;19.30;99.90;;;;;;4421318;28;656485;-67
2021/08/16 00:28:05;;;;;;;17.50;7.87;;;19.30;99.90;;;;;;4409743;28;656262;-66
2021/08/16 00:30:52;;;;;;;11.60;8.00;;;19.40;99.90;;;;;;4408268;28;656700;-67
2021/08/16 00:33:42;;;;;;;12.97;7.73;;;19.50;99.90;;;;;;4429210;28;656836;-66
2021/08/16 00:36:29;;;;;;;17.43;8.37;;;19.50;99.90;;;;;;4425328;28;656717;-67
2021/08/16 00:39:17;;;;;;;14.50;8.07;;;19.70;99.90;;;;;;4426008;28;656791;-67
2021/08/16 00:42:10;;;;;;;13.77;7.63;;;19.70;99.90;;;;;;4435125;28;656939;-67
2021/08/16 00:44:58;;;;;;;13.37;7.37;;;19.70;99.90;;;;;;4388243;28;656981;-67
2021/08/16 00:47:46;;;;;;;12.13;8.00;;;19.70;99.90;;;;;;4426664;28;657147;-67
2021/08/16 00:50:35;;;;;;;15.43;7.77;;;19.70;99.90;;;;;;4415071;28;656684;-67
2021/08/16 00:53:22;;;;;;;10.47;7.07;;;19.70;99.90;;;;;;4409749;28;656966;-67
2021/08/16 00:56:10;;;;;;;22.80;8.90;;;19.70;99.90;;;;;;4432448;28;657707;-67
2021/08/16 00:58:58;;;;;;;15.90;9.47;;;19.70;99.90;;;;;;4409232;28;656825;-67
2021/08/16 01:01:46;;;;;;;15.50;9.63;;;19.80;99.90;;;;;;4425956;28;657640;-67
2021/08/16 01:04:34;;;;;;;19.03;10.17;;;19.90;99.90;;;;;;4411250;28;657009;-67
2021/08/16 01:07:23;;;;;;;16.97;10.00;;;19.90;99.90;;;;;;4411003;28;657801;-67
2021/08/16 01:10:11;;;;;;;21.67;10.53;;;20.00;99.90;;;;;;4418237;28;658014;-67
2021/08/16 01:12:59;;;;;;;14.00;9.67;;;20.10;99.90;;;;;;4410443;28;657502;-67
2021/08/16 01:15:57;;;;;;;18.87;11.03;;;20.10;99.90;;;;;;4432670;28;656896;-67
2021/08/16 01:18:45;;;;;;;18.07;10.07;;;20.20;99.90;;;;;;4417149;28;657969;-67
2021/08/16 01:21:32;;;;;;;17.67;10.43;;;20.20;99.90;;;;;;4404012;28;657490;-67
2021/08/16 01:24:21;;;;;;;21.00;10.73;;;20.20;99.90;;;;;;4442976;28;658865;-67
2021/08/16 01:27:12;;;;;;;20.40;10.87;;;20.30;99.90;;;;;;4407172;28;658474;-67
2021/08/16 01:29:59;;;;;;;17.90;10.47;;;20.40;99.90;;;;;;4412519;28;658890;-67
2021/08/16 01:32:47;;;;;;;19.67;11.30;;;20.50;99.90;;;;;;4415864;28;657758;-67
2021/08/16 01:35:35;;;;;;;19.63;10.03;;;20.50;99.90;;;;;;4431190;28;658758;-67
2021/08/16 01:38:23;;;;;;;16.73;10.55;;;20.60;99.90;;;;;;4411643;28;658265;-68
2021/08/16 01:41:10;;;;;;;19.03;9.50;;;20.60;99.90;;;;;;4432738;28;658222;-67
2021/08/16 01:43:59;;;;;;;18.30;9.67;;;20.50;99.90;;;;;;4395445;28;656349;-67
2021/08/16 01:46:47;;;;;;;19.67;11.17;;;20.40;99.90;;;;;;4422811;28;656546;-68
2021/08/16 01:49:35;;;;;;;24.33;12.13;;;20.30;99.90;;;;;;4443677;28;659410;-67
2021/08/16 01:52:22;;;;;;;20.43;11.87;;;20.40;99.90;;;;;;4413888;28;657778;-68
2021/08/16 01:55:10;;;;;;;21.80;11.63;;;20.50;99.90;;;;;;4430705;28;659118;-67
2021/08/16 01:57:58;;;;;;;15.20;10.33;;;20.40;99.90;;;;;;4401980;28;658146;-67
2021/08/16 02:00:47;;;;;;;21.17;10.17;;;20.50;99.90;;;;;;4414071;28;658979;-68
2021/08/16 02:03:34;;;;;;;19.02;9.88;;;20.50;99.90;;;;;;4401811;28;658142;-66
2021/08/16 02:06:22;;;;;;;22.17;10.13;;;20.60;99.90;;;;;;4422463;28;657811;-67
2021/08/16 02:09:10;;;;;;;17.17;10.30;;;20.60;99.90;;;;;;4429648;28;657842;-67
2021/08/16 02:11:57;;;;;;;14.33;10.17;;;20.60;99.90;;;;;;4410083;28;657670;-67
2021/08/16 02:14:45;;;;;;;17.03;10.40;;;20.50;99.90;;;;;;4430095;28;658500;-68
2021/08/16 02:17:34;;;;;;;16.20;10.30;;;20.50;99.90;;;;;;4410731;28;657951;-67
2021/08/16 02:20:21;;;;;;;17.53;10.63;;;20.40;99.90;;;;;;4437931;28;657746;-67
2021/08/16 02:23:09;;;;;;;20.67;9.97;;;20.40;99.90;;;;;;4413056;28;660040;-67
2021/08/16 02:25:57;;;;;;;18.77;10.57;;;20.30;99.90;;;;;;4429384;28;657670;-67
2021/08/16 02:28:44;;;;;;;17.97;9.50;;;20.10;99.90;;;;;;4398740;28;659872;-67
2021/08/16 02:31:32;;;;;;;14.63;9.90;;;20.10;99.90;;;;;;4433589;28;657426;-67
2021/08/16 02:34:21;;;;;;;18.87;9.20;;;20.00;99.90;;;;;;4406183;28;658903;-67
2021/08/16 02:37:08;;;;;;;13.37;9.13;;;19.90;99.90;;;;;;4410089;28;658006;-68
2021/08/16 02:39:56;;;;;;;15.57;9.47;;;19.80;99.90;;;;;;4428405;28;658038;-67
2021/08/16 02:42:43;;;;;;;17.33;9.80;;;19.60;99.90;;;;;;4414824;28;657397;-68
2021/08/16 02:45:31;;;;;;;17.03;10.50;;;19.60;99.90;;;;;;4429547;28;658427;-68
2021/08/16 02:48:21;;;;;;;15.47;10.03;;;19.50;99.90;;;;;;4410265;28;658634;-67
2021/08/16 02:51:11;;;;;;;20.67;10.00;;;19.50;99.90;;;;;;4419744;28;658616;-68
2021/08/16 02:54:00;;;;;;;18.67;10.10;;;19.50;99.90;;;;;;4404332;28;658856;-67
2021/08/16 02:56:48;;;;;;;14.90;10.80;;;19.40;99.90;;;;;;4415924;28;659470;-67
2021/08/16 02:59:37;;;;;;;15.53;10.33;;;19.30;99.90;;;;;;4430256;28;659131;-68
2021/08/16 03:02:27;;;;;;;15.70;9.87;;;19.30;99.90;;;;;;4395010;28;659610;-67
2021/08/16 03:05:16;;;;;;;18.20;10.13;;;19.30;99.90;;;;;;4405333;28;659123;-67
2021/08/16 03:08:06;;;;;;;14.20;10.13;;;19.20;99.90;;;;;;4401892;28;658934;-68
2021/08/16 03:10:55;;;;;;;15.57;9.83;;;19.20;99.90;;;;;;4408790;28;658310;-68
2021/08/16 03:13:43;;;;;;;16.45;9.68;;;19.20;99.90;;;;;;4414579;28;657466;-68
2021/08/16 03:16:32;;;;;;;15.73;10.13;;;19.20;99.90;;;;;;4422398;28;658253;-68
2021/08/16 03:19:20;;;;;;;16.40;10.27;;;19.10;99.90;;;;;;4406399;28;659273;-67
2021/08/16 03:22:07;;;;;;;15.27;10.03;;;19.10;99.90;;;;;;4410725;28;658774;-67
2021/08/16 03:24:56;;;;;;;16.60;10.40;;;19.10;99.90;;;;;;4425504;28;659943;-67
2021/08/16 03:27:44;;;;;;;16.87;10.10;;;19.00;99.90;;;;;;4390050;28;659807;-67
2021/08/16 03:30:36;;;;;;;17.30;9.73;;;18.90;99.90;;;;;;4368328;28;659102;-67
2021/08/16 03:33:25;;;;;;;17.47;9.90;;;18.90;99.90;;;;;;4405572;28;658643;-67
2021/08/16 03:36:14;;;;;;;15.63;10.17;;;18.90;99.90;;;;;;4402968;28;658726;-67
2021/08/16 03:39:03;;;;;;;16.10;10.03;;;19.00;99.90;;;;;;4421026;28;659175;-67
2021/08/16 03:41:55;;;;;;;15.37;10.27;;;18.90;99.90;;;;;;4396924;28;659276;-67
2021/08/16 03:44:42;;;;;;;19.73;10.40;;;19.00;99.90;;;;;;4381517;28;659407;-68
2021/08/16 03:47:30;;;;;;;11.57;8.80;;;18.90;99.90;;;;;;4450089;28;659717;-67
2021/08/16 03:50:18;;;;;;;17.33;9.03;;;18.90;99.90;;;;;;4425119;28;657903;-67
2021/08/16 03:53:06;;;;;;;14.43;9.10;;;18.90;99.90;;;;;;4443511;28;658322;-68
2021/08/16 03:55:53;;;;;;;16.93;9.13;;;18.90;99.90;;;;;;4410034;28;657346;-68
2021/08/16 03:58:42;;;;;;;15.43;8.43;;;18.90;99.90;;;;;;4428671;28;659085;-68
2021/08/16 04:01:30;;;;;;;14.23;8.50;;;18.90;99.90;;;;;;4403223;28;659184;-68
2021/08/16 04:04:18;;;;;;;11.37;8.20;;;18.90;99.90;;;;;;4408049;28;657633;-68
2021/08/16 04:07:05;;;;;;;13.98;8.43;;;18.80;99.90;;;;;;4427695;28;659310;-68
2021/08/16 04:09:53;;;;;;;12.17;8.20;;;18.80;99.90;;;;;;4399956;28;658185;-68
2021/08/16 04:12:41;;;;;;;16.30;8.77;;;18.90;99.90;;;;;;4422577;28;658641;-68
2021/08/16 04:15:29;;;;;;;12.43;7.83;;;19.00;99.90;;;;;;4400221;28;658299;-67
2021/08/16 04:18:17;;;;;;;16.47;10.20;;;18.90;99.90;;;;;;4412640;28;657212;-68
2021/08/16 04:21:05;;;;;;;15.57;10.00;;;19.00;99.90;;;;;;4423273;28;660489;-68
2021/08/16 04:23:52;;;;;;;17.73;10.63;;;19.00;99.90;;;;;;4412053;28;659550;-68
2021/08/16 04:26:40;;;;;;;16.70;10.90;;;19.00;99.90;;;;;;4434147;28;660026;-68
2021/08/16 04:29:28;;;;;;;14.87;10.30;;;19.10;99.90;;;;;;4410512;28;658577;-68
2021/08/16 04:32:17;;;;;;;15.80;10.70;;;19.10;99.90;;;;;;4430678;28;659288;-68
2021/08/16 04:35:05;;;;;;;15.87;10.43;;;19.20;99.90;;;;;;4407742;28;659880;-68
2021/08/16 04:37:52;;;;;;;22.13;11.60;;;19.20;99.90;;;;;;4411621;28;659376;-68
2021/08/16 04:40:40;;;;;;;19.27;11.10;;;19.30;99.90;;;;;;4430552;28;659401;-68
2021/08/16 04:43:27;;;;;;;16.70;11.17;;;19.30;99.90;;;;;;4397930;28;658578;-68
2021/08/16 04:46:15;;;;;;;20.60;11.67;;;19.30;99.90;;;;;;4433122;28;659878;-68
2021/08/16 04:49:04;;;;;;;19.60;12.23;;;19.40;99.90;;;;;;4410619;28;658893;-68
2021/08/16 04:51:52;;;;;;;16.53;11.27;;;19.50;99.90;;;;;;4429108;28;658815;-68
2021/08/16 04:54:40;;;;;;;17.13;10.97;;;19.50;99.90;;;;;;4416387;28;660019;-68
2021/08/16 04:57:30;;;;;;;15.77;9.97;;;19.60;99.90;;;;;;4394476;28;659343;-68
2021/08/16 05:00:24;;;;;;;16.57;10.90;;;19.70;99.90;;;;;;4409234;28;657404;-68
2021/08/16 05:03:11;;;;;;;16.33;10.65;;;19.80;99.90;;;;;;4389320;28;659238;-68
2021/08/16 05:06:06;;;;;;;17.47;11.57;;;19.80;99.90;;;;;;4411226;28;659222;-68
2021/08/16 05:08:53;;;;;;;22.67;11.80;;;19.80;99.90;;;;;;4418892;28;658677;-68
2021/08/16 05:11:41;;;;;;;20.93;10.60;;;19.80;99.90;;;;;;4421198;28;660010;-69
2021/08/16 05:14:29;;;;;;;17.87;12.30;;;19.80;99.90;;;;;;4409028;28;658692;-68
2021/08/16 05:17:17;;;;;;;23.13;13.60;;;19.70;99.90;;;;;;4427888;28;658789;-69
2021/08/16 05:20:06;;;;;;;20.93;14.53;;;19.70;99.90;;;;;;4403886;28;659161;-68
2021/08/16 05:22:55;;;;;;;25.20;14.07;;;19.70;99.90;;;;;;4402843;28;659378;-68
2021/08/16 05:25:42;;;;;;;21.07;12.23;;;19.70;99.90;;;;;;4403231;28;658579;-68
2021/08/16 05:28:30;;;;;;;19.27;12.00;;;19.80;99.90;;;;;;4427009;28;659678;-68
2021/08/16 05:31:18;;;;;;;20.40;11.70;;;19.90;99.90;;;;;;4389068;28;658659;-68
2021/08/16 05:34:05;;;;;;;15.97;11.20;;;20.00;99.90;;;;;;4419183;28;659023;-68
2021/08/16 05:36:53;;;;;;;20.37;11.30;;;20.20;99.90;;;;;;4387924;28;659670;-68
2021/08/16 05:39:42;;;;;;;15.90;11.00;;;20.30;99.90;;;;;;4403252;28;660160;-67
2021/08/16 05:42:30;;;;;;;19.33;11.90;;;20.40;99.90;;;;;;4372289;28;659697;-68
2021/08/16 05:45:17;;;;;;;19.80;12.17;;;20.50;99.90;;;;;;4393155;28;658903;-68
2021/08/16 05:48:06;;;;;;;16.67;10.63;;;20.70;99.90;;;;;;4414510;28;659146;-67
2021/08/16 05:50:54;;;;;;;18.07;11.37;;;20.80;99.90;;;;;;4372948;28;658750;-68
2021/08/16 05:53:41;;;;;;;17.03;11.23;;;20.80;99.90;;;;;;4403501;28;658648;-67
2021/08/16 05:56:30;;;;;;;16.03;11.10;;;21.00;99.90;;;;;;4387751;28;658465;-67
2021/08/16 05:59:18;;;;;;;17.03;10.70;;;21.10;99.90;;;;;;4380356;28;659303;-68
2021/08/16 06:02:06;;;;;;;17.27;10.63;;;21.10;99.90;;;;;;4404944;28;659416;-67
2021/08/16 06:04:53;;;;;;;17.50;10.77;;;21.30;99.90;;;;;;4386841;28;658675;-68
2021/08/16 06:07:41;;;;;;;15.90;10.13;;;21.40;99.90;;;;;;4402081;28;658596;-68
2021/08/16 06:10:29;;;;;;;14.70;10.70;;;21.50;99.90;;;;;;4384398;28;658443;-68
2021/08/16 06:13:17;;;;;;;16.03;9.97;;;21.60;99.90;;;;;;4408330;28;659185;-68
2021/08/16 06:16:05;;;;;;;15.40;10.40;;;21.60;99.90;;;;;;4387617;28;658233;-68
2021/08/16 06:18:53;;;;;;;22.30;10.40;;;21.80;99.90;;;;;;4377909;28;658451;-68
2021/08/16 06:21:42;;;;;;;16.53;10.53;;;22.00;99.90;;;;;;4413510;28;659996;-68
2021/08/16 06:24:29;;;;;;;18.30;9.70;;;22.20;99.90;;;;;;4391941;28;658569;-68
2021/08/16 06:27:18;;;;;;;16.40;9.53;;;22.30;99.90;;;;;;4395550;28;657591;-68
2021/08/16 06:30:08;;;;;;;11.03;7.73;;;22.40;99.90;;;;;;4418917;28;659125;-68
2021/08/16 06:32:56;;;;;;;13.27;7.70;;;22.50;99.90;;;;;;4390781;28;657866;-68
2021/08/16 06:35:43;;;;;;;12.10;8.20;;;22.70;99.90;;;;;;4371516;28;657934;-68
2021/08/16 06:38:31;;;;;;;15.40;8.53;;;23.00;99.90;;;;;;4396681;28;658412;-68
2021/08/16 06:41:19;;;;;;;11.93;7.97;;;23.10;99.90;;;;;;4377865;28;657898;-68
2021/08/16 06:44:07;;;;;;;15.30;8.00;;;23.30;99.90;;;;;;4408269;28;658855;-68
2021/08/16 06:46:56;;;;;;;14.03;8.07;;;23.40;99.90;;;;;;4388554;28;659107;-69
2021/08/16 06:49:44;;;;;;;14.97;8.20;;;23.50;99.90;;;;;;4386238;28;657621;-68
2021/08/16 06:52:33;;;;;;;13.77;7.80;;;23.60;99.90;;;;;;4397463;28;658008;-69
2021/08/16 06:55:22;;;;;;;12.07;8.30;;;23.80;99.90;;;;;;4398233;28;658269;-68
2021/08/16 06:58:10;;;;;;;16.97;8.10;;;24.00;99.90;;;;;;4388119;28;659465;-68
2021/08/16 07:00:58;;;;;;;14.57;8.27;;;24.10;99.90;;;;;;4406277;28;658144;-68
2021/08/16 07:03:47;;;;;;;13.73;8.07;;;24.10;99.90;;;;;;4410775;28;659049;-68
2021/08/16 07:06:35;;;;;;;14.53;8.27;;;24.10;99.90;;;;;;4386516;28;657454;-68
2021/08/16 07:09:22;;;;;;;13.13;8.27;;;24.10;99.90;;;;;;4389493;28;657326;-69
2021/08/16 07:12:10;;;;;;;17.17;8.37;;;24.10;99.90;;;;;;4400589;28;659110;-68
2021/08/16 07:14:58;;;;;;;14.07;8.80;;;24.20;99.90;;;;;;4383169;28;657706;-68
2021/08/16 07:17:46;;;;;;;14.83;8.60;;;24.30;99.90;;;;;;4407304;28;658097;-68
2021/08/16 07:20:35;;;;;;;11.13;8.05;;;24.40;99.90;;;;;;4393719;28;657360;-68
2021/08/16 07:23:22;;;;;;;14.27;8.10;;;24.50;99.90;;;;;;4375528;28;657693;-69
2021/08/16 07:26:10;;;;;;;12.90;7.85;;;24.50;99.90;;;;;;4402919;28;658669;-68
2021/08/16 07:28:58;;;;;;;13.87;8.53;;;24.70;99.90;;;;;;4393511;28;657958;-68
2021/08/16 07:31:45;;;;;;;18.60;9.60;;;24.90;99.90;;;;;;4414459;28;658327;-68
2021/08/16 07:34:34;;;;;;;16.73;9.00;;;24.90;99.90;;;;;;4392922;28;657711;-68
2021/08/16 07:37:24;;;;;;;15.88;8.63;;;24.90;99.90;;;;;;4407488;28;657777;-68
2021/08/16 07:40:13;;;;;;;18.35;8.40;;;24.90;99.90;;;;;;4412110;28;657659;-68
2021/08/16 07:43:01;;;;;;;15.18;9.07;;;24.90;99.90;;;;;;4383474;28;658853;-68
2021/08/16 07:45:49;;;;;;;13.68;8.77;;;25.00;99.90;;;;;;4393604;28;657351;-68
2021/08/16 07:48:36;;;;;;;14.32;8.63;;;25.10;99.90;;;;;;4412689;28;657954;-68
2021/08/16 07:51:24;;;;;;;17.42;8.77;;;25.20;99.90;;;;;;4389621;28;658573;-68
2021/08/16 07:54:13;;;;;;;13.80;8.45;;;25.30;99.90;;;;;;4411905;28;657723;-68
2021/08/16 07:57:01;;;;;;;10.30;7.28;;;25.30;99.90;;;;;;4385835;28;658832;-68
2021/08/16 07:59:48;;;;;;;16.70;8.25;;;25.40;99.90;;;;;;4396493;28;657947;-68
2021/08/16 08:02:40;;;;;;;23.75;8.52;;;25.40;99.90;;;;;;4415948;28;658748;-68
2021/08/16 08:05:27;;;;;;;12.93;7.55;;;25.40;99.90;;;;;;4374082;28;658174;-69
2021/08/16 08:08:15;;;;;;;11.32;7.63;;;25.60;99.90;;;;;;4416297;28;658676;-67
2021/08/16 08:11:04;;;;;;;11.90;7.57;;;25.70;99.90;;;;;;4391786;28;658070;-68
2021/08/16 08:13:52;;;;;;;12.30;7.20;;;25.70;99.90;;;;;;4406381;28;657604;-68
2021/08/16 08:16:40;;;;;;;12.25;7.65;;;25.70;99.90;;;;;;4419430;28;658914;-68
2021/08/16 08:19:28;;;;;;;14.15;8.30;;;25.80;99.90;;;;;;4396069;28;657501;-68
2021/08/16 08:22:17;;;;;;;16.02;8.00;;;25.90;99.90;;;;;;4415466;28;658264;-69
2021/08/16 08:25:05;;;;;;;18.27;8.48;;;25.90;99.90;;;;;;4392595;28;658529;-68
2021/08/16 08:27:54;;;;;;;16.23;8.45;;;26.00;99.90;;;;;;4396414;28;657456;-68
2021/08/16 08:30:42;;;;;;;14.45;8.60;;;26.10;99.90;;;;;;4414913;28;657547;-67
2021/08/16 08:33:30;;;;;;;17.75;9.20;;;26.30;99.90;;;;;;4392180;28;658513;-68
2021/08/16 08:36:17;;;;;;;17.42;9.07;;;26.40;99.90;;;;;;4396924;28;657760;-68
2021/08/16 08:39:05;;;;;;;18.13;8.80;;;26.40;99.90;;;;;;4418780;28;658596;-68
2021/08/16 08:41:53;;;;;;;15.35;8.73;;;26.60;99.90;;;;;;4395774;28;657357;-67
2021/08/16 08:44:43;;;;;;;16.10;7.70;;;26.60;99.90;;;;;;4415079;28;659036;-68
2021/08/16 08:47:32;;;;;;;14.77;8.70;;;26.60;99.90;;;;;;4392612;28;658787;-68
2021/08/16 08:50:20;;;;;;;15.75;8.30;;;26.60;99.90;;;;;;4392396;28;657775;-68
2021/08/16 08:53:07;;;;;;;16.05;8.70;;;26.70;99.90;;;;;;4396600;28;658051;-68
2021/08/16 08:55:55;;;;;;;16.20;9.00;;;26.60;99.90;;;;;;4417348;28;657929;-68
2021/08/16 08:58:43;;;;;;;18.38;8.73;;;26.80;99.90;;;;;;4394649;28;657462;-68
2021/08/16 09:01:32;;;;;;;17.23;8.05;;;26.90;99.90;;;;;;4417665;28;657750;-68
2021/08/16 09:04:20;;;;;;;11.85;8.23;;;26.90;99.90;;;;;;4391383;28;658052;-68
2021/08/16 09:07:08;;;;;;;17.60;7.40;;;27.00;99.90;;;;;;4395370;28;658053;-68
2021/08/16 09:09:55;;;;;;;13.38;7.18;;;27.10;99.90;;;;;;4414262;28;658625;-68
2021/08/16 09:12:44;;;;;;;16.45;7.78;;;27.10;99.90;;;;;;4395292;28;657588;-68
2021/08/16 09:15:33;;;;;;;10.70;6.30;;;27.20;99.90;;;;;;4405488;28;657689;-68
2021/08/16 09:18:30;;;;;;;10.70;6.13;;;27.00;99.90;;;;;;4414689;28;658805;-68
2021/08/16 09:21:29;;;;;;;14.18;6.30;;;27.00;99.90;;;;;;4368587;28;657660;-68
2021/08/16 09:24:23;;;;;;;10.02;5.78;;;27.10;99.90;;;;;;4391501;28;657671;-68
2021/08/16 09:27:11;;;;;;;11.05;5.40;;;27.40;99.90;;;;;;4387299;28;657585;-68
2021/08/16 09:29:59;;;;;;;10.57;5.43;;;27.50;99.90;;;;;;4395621;28;657908;-68
2021/08/16 09:32:46;;;;;;;12.30;5.68;;;27.40;99.90;;;;;;4413740;28;657502;-68
2021/08/16 09:35:35;;;;;;;11.23;5.55;;;27.60;99.90;;;;;;4391106;28;658674;-68
2021/08/16 09:38:36;;;;;;;13.38;5.78;;;28.00;99.90;;;;;;4393545;28;657802;-68
2021/08/16 09:41:25;;;;;;;11.48;5.38;;;28.10;99.90;;;;;;4368634;28;657865;-68
2021/08/16 09:44:14;;;;;;;11.65;5.45;;;27.90;99.90;;;;;;4395902;28;657815;-68
2021/08/16 09:47:03;;;;;;;7.72;4.53;;;27.80;99.90;;;;;;4414039;28;658322;-68
2021/08/16 09:50:02;;;;;;;12.45;5.43;;;27.70;99.90;;;;;;4384183;28;657415;-68
2021/08/16 09:52:51;;;;;;;6.82;4.15;;;27.80;99.90;;;;;;4367460;28;658532;-68
2021/08/16 09:55:40;;;;;;;7.47;4.20;;;27.90;99.90;;;;;;4396533;28;656816;-68
2021/08/16 09:58:28;;;;;;;8.40;3.72;;;28.00;99.90;;;;;;4396044;28;656739;-68
2021/08/16 10:01:15;;;;;;;10.40;4.68;;;28.10;99.90;;;;;;4414650;28;657379;-68
2021/08/16 10:04:04;;;;;;;6.60;3.83;;;28.10;99.90;;;;;;4394430;28;657657;-68
2021/08/16 10:06:52;;;;;;;10.25;3.90;;;27.90;99.90;;;;;;4413776;28;656398;-68
2021/08/16 10:09:41;;;;;;;10.45;3.72;;;28.40;99.90;;;;;;4389616;28;659317;-68
2021/08/16 10:12:29;;;;;;;5.38;3.70;;;28.40;99.90;;;;;;4394497;28;658935;-68
2021/08/16 10:15:17;;;;;;;8.23;3.38;;;28.30;99.90;;;;;;4407663;28;656980;-68
2021/08/16 10:18:05;;;;;;;6.43;3.38;;;28.60;99.90;;;;;;4419024;28;657178;-67
2021/08/16 10:20:53;;;;;;;8.30;4.25;;;28.70;99.90;;;;;;4395898;28;656368;-68
2021/08/16 10:23:47;;;;;;;6.47;3.65;;;28.80;99.90;;;;;;4414545;28;656862;-68
2021/08/16 10:26:36;;;;;;;12.15;4.00;;;29.00;99.90;;;;;;4368405;28;657112;-68
2021/08/16 10:29:24;;;;;;;8.75;3.47;;;29.10;99.90;;;;;;4390463;28;658631;-68
2021/08/16 10:32:19;;;;;;;5.82;3.72;;;29.10;99.90;;;;;;4413132;28;656440;-68
2021/08/16 10:35:11;;;;;;;6.88;3.50;;;29.00;99.90;;;;;;4391080;28;657521;-68
2021/08/16 10:38:07;;;;;;;6.45;3.95;;;29.40;99.90;;;;;;4395453;28;656534;-68
2021/08/16 10:40:56;;;;;;;9.82;3.85;;;29.60;99.90;;;;;;4362482;28;657506;-68
2021/08/16 10:43:45;;;;;;;10.77;4.10;;;29.70;99.90;;;;;;4395268;28;656869;-68
2021/08/16 10:46:32;;;;;;;8.75;3.90;;;30.10;99.90;;;;;;4394087;28;657634;-68
2021/08/16 10:49:31;;;;;;;6.75;3.97;;;30.20;99.90;;;;;;4418229;28;657007;-68
2021/08/16 10:52:21;;;;;;;10.35;4.18;;;30.40;99.90;;;;;;4368760;28;657071;-68
2021/08/16 10:55:10;;;;;;;14.15;3.90;;;30.50;99.90;;;;;;4394333;28;657803;-68
2021/08/16 10:57:57;;;;;;;11.35;4.38;;;30.40;99.90;;;;;;4392262;28;657654;-68
2021/08/16 11:00:47;;;;;;;8.55;3.80;;;30.10;99.90;;;;;;4416466;28;658634;-68
2021/08/16 11:03:35;;;;;;;8.25;3.58;;;30.40;99.90;;;;;;4391392;28;657494;-68
2021/08/16 11:06:22;;;;;;;13.47;3.67;;;30.40;99.90;;;;;;4394758;28;657257;-68
2021/08/16 11:09:10;;;;;;;6.82;3.33;;;30.20;99.90;;;;;;4416255;28;658972;-67
2021/08/16 11:12:02;;;;;;;8.80;3.00;;;30.10;99.90;;;;;;4395167;28;656850;-68
2021/08/16 11:14:51;;;;;;;5.93;2.70;;;29.60;99.90;;;;;;4390952;28;657361;-68
2021/08/16 11:17:40;;;;;;;4.57;3.30;;;29.70;99.90;;;;;;4394679;28;656751;-67
2021/08/16 11:20:28;;;;;;;6.80;3.60;;;29.70;99.90;;;;;;4394453;28;656700;-67
2021/08/16 11:23:21;;;;;;;6.03;3.38;;;29.80;99.90;;;;;;4413385;28;657540;-68
2021/08/16 11:26:09;;;;;;;8.88;3.45;;;29.50;99.90;;;;;;4390267;28;656232;-68
2021/08/16 11:29:08;;;;;;;11.40;3.90;;;29.60;99.90;;;;;;4413226;28;656886;-67
2021/08/16 11:32:02;;;;;;;6.50;3.33;;;29.50;99.90;;;;;;4388579;28;657981;-67
2021/08/16 11:34:53;;;;;;;7.45;3.20;;;29.30;99.90;;;;;;4383997;28;656634;-67
2021/08/16 11:37:48;;;;;;;6.82;3.50;;;29.30;99.90;;;;;;4390343;28;656589;-67
2021/08/16 11:40:36;;;;;;;5.32;3.20;;;29.10;99.90;;;;;;4390361;28;656773;-68
2021/08/16 11:43:27;;;;;;;7.18;3.70;;;28.80;99.90;;;;;;4394903;28;656535;-67
2021/08/16 11:46:15;;;;;;;6.60;3.40;;;28.80;99.90;;;;;;4390382;28;657708;-67
2021/08/16 11:49:07;;;;;;;10.00;2.88;;;28.80;99.90;;;;;;4389387;28;657188;-68
2021/08/16 11:51:57;;;;;;;7.47;2.80;;;28.70;99.90;;;;;;4389032;28;658764;-68
2021/08/16 11:54:44;;;;;;;8.10;3.00;;;28.40;98.70;;;;;;4390548;28;658395;-67
2021/08/16 11:57:32;;;;;;;6.38;2.70;;;28.30;99.90;;;;;;4409371;28;656577;-68
2021/08/16 12:00:23;;;;;;;10.75;3.08;;;28.60;99.90;;;;;;4417259;28;657538;-67
2021/08/16 12:03:11;;;;;;;5.93;2.70;;;29.20;99.90;;;;;;4388568;28;658872;-67
2021/08/16 12:05:58;;;;;;;6.97;2.80;;;29.80;99.30;;;;;;4394962;28;656665;-68
2021/08/16 12:08:47;;;;;;;8.68;2.67;;;30.10;95.90;;;;;;4413368;28;656654;-67
2021/08/16 12:11:35;;;;;;;12.82;2.97;;;30.30;95.20;;;;;;4390237;28;656843;-68
2021/08/16 12:14:28;;;;;;;6.07;2.90;;;30.40;94.70;;;;;;4392717;28;658000;-68
2021/08/16 12:17:25;;;;;;;12.73;2.75;;;30.30;95.00;;;;;;4390449;28;657807;-67
2021/08/16 12:20:14;;;;;;;8.38;2.80;;;30.20;94.80;;;;;;4369980;28;658169;-68
2021/08/16 12:23:01;;;;;;;6.90;2.97;;;30.30;95.00;;;;;;4412779;28;656008;-68
2021/08/16 12:25:51;;;;;;;10.07;2.92;;;30.50;94.30;;;;;;4389821;28;657564;-68
2021/08/16 12:28:39;;;;;;;6.03;3.20;;;30.60;92.50;;;;;;4389686;28;657616;-68
2021/08/16 12:31:27;;;;;;;8.65;3.17;;;30.40;93.50;;;;;;4413036;28;657106;-68
2021/08/16 12:34:20;;;;;;;6.53;3.40;;;30.70;94.80;;;;;;4388083;28;658477;-67
2021/08/16 12:37:23;;;;;;;7.20;3.17;;;31.00;97.00;;;;;;4371738;28;656779;-68
2021/08/16 12:40:12;;;;;;;8.75;3.15;;;31.20;94.20;;;;;;4385429;28;656666;-67
2021/08/16 12:43:02;;;;;;;9.80;3.42;;;31.00;91.00;;;;;;4395986;28;656872;-67
2021/08/16 12:45:56;;;;;;;8.60;3.15;;;31.10;92.90;;;;;;4392997;28;657661;-68
2021/08/16 12:48:48;;;;;;;5.78;2.88;;;31.40;92.10;;;;;;4397544;28;656715;-67
2021/08/16 12:51:35;;;;;;;5.78;2.92;;;31.30;91.50;;;;;;4393650;28;657064;-68
2021/08/16 12:54:26;;;;;;;9.40;3.03;;;31.00;91.60;;;;;;4396706;28;656837;-67
2021/08/16 12:57:13;;;;;;;6.32;3.38;;;31.40;92.00;;;;;;4396989;28;656447;-68
2021/08/16 13:00:02;;;;;;;8.57;3.47;;;31.30;91.80;;;;;;4415912;28;657273;-67
2021/08/16 13:02:50;;;;;;;8.45;3.03;;;31.10;90.30;;;;;;4392973;28;657294;-67
2021/08/16 13:05:38;;;;;;;6.18;3.28;;;31.40;90.70;;;;;;4397069;28;656678;-68
2021/08/16 13:08:25;;;;;;;8.73;3.00;;;31.60;90.30;;;;;;4415969;28;657165;-67
2021/08/16 13:11:13;;;;;;;6.03;3.28;;;32.00;91.00;;;;;;4396099;28;656581;-68
2021/08/16 13:14:01;;;;;;;6.45;2.80;;;32.40;89.80;;;;;;4415768;28;656803;-68
2021/08/16 13:16:51;;;;;;;7.97;2.90;;;32.50;89.10;;;;;;4390767;28;657055;-68
2021/08/16 13:19:38;;;;;;;8.45;3.30;;;32.30;86.00;;;;;;4396662;28;656928;-68
2021/08/16 13:22:26;;;;;;;10.38;3.40;;;32.00;85.20;;;;;;4415552;28;656941;-68
2021/08/16 13:25:14;;;;;;;5.97;3.20;;;31.80;87.70;;;;;;4395327;28;657955;-68
2021/08/16 13:28:02;;;;;;;7.55;3.13;;;31.90;86.90;;;;;;4415553;28;656776;-67
2021/08/16 13:30:49;;;;;;;5.32;2.90;;;32.00;87.00;;;;;;4396806;28;657359;-68
2021/08/16 13:33:39;;;;;;;6.75;3.15;;;31.80;81.40;;;;;;4409645;28;656428;-67
2021/08/16 13:36:27;;;;;;;6.03;3.28;;;31.30;83.20;;;;;;4415609;28;656648;-67
2021/08/16 13:39:14;;;;;;;7.03;3.08;;;30.90;86.10;;;;;;4396938;28;657566;-67
2021/08/16 13:42:13;;;;;;;9.13;3.50;;;30.80;86.90;;;;;;4406406;28;656918;-67
2021/08/16 13:45:01;;;;;;;7.15;3.33;;;30.50;84.80;;;;;;4392526;28;656724;-67
2021/08/16 13:47:48;;;;;;;6.68;3.33;;;30.30;86.40;;;;;;4396382;28;656825;-67
2021/08/16 13:50:38;;;;;;;9.05;3.20;;;30.10;84.80;;;;;;4415348;28;656451;-68
2021/08/16 13:53:25;;;;;;;5.57;3.63;;;30.00;87.30;;;;;;4391546;28;657395;-67
2021/08/16 13:56:13;;;;;;;6.28;3.38;;;30.10;87.90;;;;;;4395752;28;656707;-68
2021/08/16 13:59:01;;;;;;;5.20;3.03;;;29.90;89.30;;;;;;4415021;28;657515;-67
2021/08/16 14:01:49;;;;;;;11.50;3.47;;;30.20;87.50;;;;;;4396092;28;656846;-68
2021/08/16 14:04:36;;;;;;;7.82;3.55;;;30.60;89.70;;;;;;4413611;28;658149;-67
2021/08/16 14:07:25;;;;;;;13.20;3.38;;;30.50;87.30;;;;;;4395626;28;656943;-67
2021/08/16 14:10:13;;;;;;;12.30;3.25;;;30.50;86.50;;;;;;4393138;28;657116;-67
2021/08/16 14:13:07;;;;;;;8.00;3.63;;;30.30;87.00;;;;;;4408254;28;657599;-67